createdAt,value
2022-10-07T00:00:52.919Z,5.55
2022-10-07T00:03:21.813Z,4.20
2022-10-07T00:06:00.168Z,3.92
2022-10-07T00:08:26.990Z,4.00
2022-10-07T00:10:53.797Z,3.90
2022-10-07T00:13:20.621Z,4.03
2022-10-07T00:15:47.568Z,4.78
2022-10-07T00:18:14.608Z,3.67
2022-10-07T00:20:41.521Z,4.00
2022-10-07T00:23:09.424Z,4.10
2022-10-07T00:25:37.827Z,4.18
2022-10-07T00:28:05.659Z,4.15
2022-10-07T00:30:33.110Z,4.72
2022-10-07T00:33:00.040Z,5.03
2022-10-07T00:35:26.768Z,4.32
2022-10-07T00:37:53.646Z,4.22
2022-10-07T00:40:20.306Z,4.15
2022-10-07T00:42:47.038Z,4.00
2022-10-07T00:45:17.017Z,3.75
2022-10-07T00:47:51.552Z,3.72
2022-10-07T00:50:25.927Z,4.30
2022-10-07T00:52:57.337Z,3.83
2022-10-07T00:55:27.239Z,4.32
2022-10-07T00:57:57.165Z,3.63
2022-10-07T01:00:24.123Z,4.13
2022-10-07T01:02:51.897Z,4.95
2022-10-07T01:05:19.564Z,3.78
2022-10-07T01:07:48.466Z,3.72
2022-10-07T01:10:19.753Z,4.13
2022-10-07T01:13:05.084Z,4.03
2022-10-07T01:15:46.024Z,3.88
2022-10-07T01:18:41.957Z,4.10
2022-10-07T01:21:31.824Z,6.22
2022-10-07T01:24:22.883Z,3.45
2022-10-07T01:27:04.970Z,4.10
2022-10-07T01:29:55.801Z,3.42
2022-10-07T01:32:32.412Z,3.55
2022-10-07T01:35:04.466Z,3.70
2022-10-07T01:37:35.760Z,4.05
2022-10-07T01:40:09.029Z,3.90
2022-10-07T01:42:37.516Z,3.63
2022-10-07T01:45:06.783Z,3.85
2022-10-07T01:47:33.454Z,4.07
2022-10-07T01:50:00.116Z,3.35
2022-10-07T01:52:50.313Z,3.55
2022-10-07T01:55:29.388Z,4.40
2022-10-07T01:58:31.523Z,3.35
2022-10-07T02:01:17.349Z,3.75
2022-10-07T02:04:12.099Z,3.60
2022-10-07T02:06:52.761Z,3.92
2022-10-07T02:09:41.217Z,3.88
2022-10-07T02:12:23.603Z,3.45
2022-10-07T02:15:00.832Z,5.28
2022-10-07T02:17:31.547Z,4.22
2022-10-07T02:20:01.421Z,4.07
2022-10-07T02:22:29.340Z,3.58
2022-10-07T02:25:00.086Z,3.83
2022-10-07T02:27:34.968Z,3.13
2022-10-07T02:30:08.175Z,3.45
2022-10-07T02:32:36.310Z,3.50
2022-10-07T02:35:13.961Z,3.30
2022-10-07T02:37:44.305Z,3.65
2022-10-07T02:40:12.406Z,3.67
2022-10-07T02:43:01.467Z,3.40
2022-10-07T02:45:37.469Z,3.33
2022-10-07T02:48:10.875Z,3.90
2022-10-07T02:50:42.346Z,2.90
2022-10-07T02:53:10.947Z,3.78
2022-10-07T02:55:37.701Z,3.42
2022-10-07T02:58:07.917Z,3.28
2022-10-07T03:00:38.750Z,3.95
2022-10-07T03:03:05.972Z,3.55
2022-10-07T03:05:43.933Z,2.80
2022-10-07T03:08:11.511Z,3.53
2022-10-07T03:10:40.831Z,3.35
2022-10-07T03:13:08.754Z,3.38
2022-10-07T03:15:42.574Z,3.45
2022-10-07T03:18:27.263Z,3.05
2022-10-07T03:21:12.639Z,4.63
2022-10-07T03:23:39.387Z,3.22
2022-10-07T03:26:06.686Z,3.47
2022-10-07T03:28:38.150Z,3.45
2022-10-07T03:31:08.139Z,4.75
2022-10-07T03:33:37.299Z,3.28
2022-10-07T03:36:08.364Z,3.30
2022-10-07T03:38:36.369Z,3.20
2022-10-07T03:41:04.532Z,3.10
2022-10-07T03:43:32.047Z,3.88
2022-10-07T03:46:02.232Z,3.13
2022-10-07T03:48:30.861Z,2.88
2022-10-07T03:50:58.381Z,3.50
2022-10-07T03:53:29.500Z,3.10
2022-10-07T03:55:57.369Z,3.42
2022-10-07T03:58:24.373Z,3.45
2022-10-07T04:00:51.671Z,3.75
2022-10-07T04:03:18.712Z,3.40
2022-10-07T04:06:00.616Z,3.30
2022-10-07T04:08:32.501Z,3.58
2022-10-07T04:11:01.571Z,3.60
2022-10-07T04:13:29.588Z,4.70
2022-10-07T04:15:57.727Z,3.55
2022-10-07T04:18:25.842Z,4.57
2022-10-07T04:20:53.799Z,2.67
2022-10-07T04:23:21.484Z,3.40
2022-10-07T04:25:48.210Z,3.10
2022-10-07T04:28:27.130Z,3.10
2022-10-07T04:31:04.725Z,3.45
2022-10-07T04:36:05.997Z,3.38
2022-10-07T04:38:33.751Z,3.78
2022-10-07T04:41:07.251Z,3.60
2022-10-07T04:43:36.101Z,4.65
2022-10-07T04:46:15.346Z,3.70
2022-10-07T04:48:50.505Z,3.15
2022-10-07T04:51:22.618Z,3.55
2022-10-07T04:53:57.007Z,3.75
2022-10-07T04:56:31.476Z,4.00
2022-10-07T04:59:00.233Z,3.47
2022-10-07T05:01:28.081Z,3.97
2022-10-07T05:03:54.856Z,3.40
2022-10-07T05:06:21.853Z,3.35
2022-10-07T05:08:49.805Z,3.05
2022-10-07T05:11:16.591Z,3.15
2022-10-07T05:13:49.389Z,3.65
2022-10-07T05:16:16.709Z,3.35
2022-10-07T05:18:43.791Z,3.33
2022-10-07T05:21:13.402Z,3.50
2022-10-07T05:23:44.513Z,3.70
2022-10-07T05:26:16.265Z,3.08
2022-10-07T05:28:49.265Z,3.83
2022-10-07T05:31:23.210Z,3.13
2022-10-07T05:33:54.011Z,3.58
2022-10-07T05:36:23.877Z,4.00
2022-10-07T05:38:58.219Z,6.30
2022-10-07T05:41:30.550Z,12.02
2022-10-07T05:44:01.084Z,9.75
2022-10-07T05:46:28.071Z,7.90
2022-10-07T05:48:57.938Z,5.45
2022-10-07T05:51:29.479Z,4.05
2022-10-07T05:53:57.668Z,3.75
2022-10-07T05:56:30.566Z,4.00
2022-10-07T05:58:57.379Z,3.88
2022-10-07T06:01:28.315Z,3.47
2022-10-07T06:03:57.500Z,4.53
2022-10-07T06:06:26.891Z,4.20
2022-10-07T06:09:15.896Z,5.65
2022-10-07T06:12:01.738Z,4.00
2022-10-07T06:14:29.321Z,3.83
2022-10-07T06:16:56.152Z,4.47
2022-10-07T06:19:23.007Z,3.50
2022-10-07T06:21:52.587Z,4.15
2022-10-07T06:24:19.364Z,4.30
2022-10-07T06:26:46.235Z,4.13
2022-10-07T06:29:13.102Z,3.60
2022-10-07T07:48:40.717Z,3.50
2022-10-07T07:51:07.900Z,2.63
2022-10-07T07:53:39.650Z,3.35
2022-10-07T07:58:33.890Z,2.97
2022-10-07T08:01:03.575Z,3.05
2022-10-07T08:03:30.873Z,3.13
2022-10-07T08:06:01.994Z,2.40
2022-10-07T08:08:30.395Z,3.00
2022-10-07T08:10:58.319Z,2.92
2022-10-07T08:13:24.980Z,3.17
2022-10-07T08:15:56.702Z,3.13
2022-10-07T08:21:02.775Z,4.05
2022-10-07T08:23:31.241Z,2.47
2022-10-07T08:25:59.657Z,3.95
2022-10-07T08:28:28.270Z,2.63
2022-10-07T08:31:05.755Z,2.75
2022-10-07T08:33:35.421Z,2.35
2022-10-07T08:36:04.799Z,2.63
2022-10-07T08:38:33.800Z,2.70
2022-10-07T08:41:09.932Z,2.55
2022-10-07T08:43:42.447Z,2.45
2022-10-07T08:46:14.119Z,3.30
2022-10-07T08:51:30.951Z,3.03
2022-10-07T08:53:59.020Z,3.17
2022-10-07T08:56:26.776Z,2.70
2022-10-07T08:59:05.512Z,2.40
2022-10-07T09:01:44.367Z,2.70
2022-10-07T09:04:19.890Z,2.10
2022-10-07T09:07:05.241Z,2.60
2022-10-07T09:10:01.613Z,2.70
2022-10-07T09:12:58.023Z,3.15
2022-10-07T09:15:42.227Z,2.88
2022-10-07T09:18:23.827Z,2.80
2022-10-07T09:20:56.087Z,2.88
2022-10-07T09:23:31.339Z,2.80
2022-10-07T09:25:58.221Z,2.25
2022-10-07T09:28:31.335Z,2.55
2022-10-07T09:31:03.034Z,2.55
2022-10-07T09:36:04.851Z,2.40
2022-10-07T09:38:31.844Z,2.55
2022-10-07T09:41:19.846Z,3.20
2022-10-07T09:43:49.612Z,2.42
2022-10-07T09:46:35.324Z,2.90
2022-10-07T09:49:04.483Z,3.65
2022-10-07T09:51:32.642Z,2.75
2022-10-07T09:54:05.654Z,2.95
2022-10-07T09:56:38.174Z,2.63
2022-10-07T09:59:28.301Z,2.60
2022-10-07T10:02:15.347Z,2.65
2022-10-07T10:04:50.191Z,3.22
2022-10-07T10:07:20.692Z,2.80
2022-10-07T10:10:27.085Z,2.03
2022-10-07T10:12:56.081Z,2.67
2022-10-07T10:15:27.467Z,2.60
2022-10-07T10:17:57.024Z,2.88
2022-10-07T10:20:23.897Z,2.45
2022-10-07T10:22:52.157Z,2.80
2022-10-07T10:26:04.049Z,2.97
2022-10-07T10:28:59.472Z,2.17
2022-10-07T10:32:02.205Z,2.83
2022-10-07T10:34:42.223Z,3.65
2022-10-07T10:37:18.432Z,2.50
2022-10-07T10:40:03.024Z,3.47
2022-10-07T10:43:07.034Z,2.65
2022-10-07T10:46:07.757Z,3.47
2022-10-07T10:48:48.067Z,3.78
2022-10-07T10:51:36.502Z,2.85
2022-10-07T10:54:21.687Z,2.30
2022-10-07T10:56:59.157Z,2.75
2022-10-07T10:59:44.458Z,3.05
2022-10-07T11:02:33.139Z,2.60
2022-10-07T11:05:25.050Z,2.80
2022-10-07T11:11:09.377Z,2.60
2022-10-07T11:13:46.826Z,2.28
2022-10-07T11:16:21.481Z,2.70
2022-10-07T11:19:08.572Z,2.63
2022-10-07T11:21:39.834Z,2.75
2022-10-07T11:24:16.658Z,2.70
2022-10-07T11:26:48.160Z,2.88
2022-10-07T11:29:39.230Z,2.22
2022-10-07T11:32:15.435Z,2.33
2022-10-07T11:34:45.071Z,2.78
2022-10-07T11:37:37.179Z,2.85
2022-10-07T11:40:06.553Z,2.83
2022-10-07T11:42:43.385Z,2.90
2022-10-07T11:45:18.100Z,2.60
2022-10-07T11:47:54.087Z,3.22
2022-10-07T11:50:23.711Z,3.53
2022-10-07T11:52:54.844Z,2.50
2022-10-07T11:55:39.775Z,3.17
2022-10-07T11:58:19.904Z,2.38
2022-10-07T12:00:46.731Z,2.72
2022-10-07T12:03:33.593Z,2.97
2022-10-07T12:06:11.675Z,3.28
2022-10-07T12:08:44.084Z,2.45
2022-10-07T12:11:14.339Z,3.10
2022-10-07T12:13:50.610Z,2.67
2022-10-07T12:16:23.503Z,2.65
2022-10-07T12:19:10.334Z,2.97
2022-10-07T12:21:59.493Z,2.40
2022-10-07T12:24:27.592Z,2.70
2022-10-07T12:27:06.841Z,2.45
2022-10-07T12:30:02.401Z,2.80
2022-10-07T12:32:51.127Z,3.25
2022-10-07T12:35:33.301Z,2.70
2022-10-07T12:40:34.846Z,2.28
2022-10-07T12:43:13.938Z,2.47
2022-10-07T12:45:43.447Z,2.80
2022-10-07T12:48:18.102Z,2.60
2022-10-07T12:50:47.303Z,2.58
2022-10-07T12:53:14.252Z,2.15
2022-10-07T12:55:50.522Z,3.45
2022-10-07T12:58:53.884Z,2.63
2022-10-07T13:01:53.739Z,2.53
2022-10-07T13:04:51.632Z,2.35
2022-10-07T13:07:45.097Z,2.28
2022-10-07T13:10:33.027Z,3.13
2022-10-07T13:13:09.854Z,2.60
2022-10-07T13:15:43.003Z,2.40
2022-10-07T13:18:30.301Z,2.40
2022-10-07T13:21:08.039Z,2.88
2022-10-07T13:23:35.007Z,2.47
2022-10-07T13:26:05.262Z,2.20
2022-10-07T13:28:48.833Z,2.70
2022-10-07T13:31:25.580Z,2.67
2022-10-07T13:33:53.608Z,3.13
2022-10-07T13:36:28.565Z,2.47
2022-10-07T13:39:19.247Z,3.00
2022-10-07T13:41:48.914Z,3.47
2022-10-07T13:44:18.795Z,2.45
2022-10-07T13:47:06.757Z,2.45
2022-10-07T13:49:38.202Z,3.05
2022-10-07T13:52:08.050Z,2.80
2022-10-07T13:54:34.828Z,2.60
2022-10-07T13:57:02.320Z,2.30
2022-10-07T13:59:29.814Z,3.05
2022-10-07T14:02:01.207Z,2.35
2022-10-07T14:04:33.044Z,1.95
2022-10-07T14:07:20.395Z,2.45
2022-10-07T14:09:50.060Z,2.30
2022-10-07T14:12:30.038Z,2.80
2022-10-07T14:15:02.766Z,2.13
2022-10-07T14:17:38.748Z,2.65
2022-10-07T14:20:18.437Z,2.78
2022-10-07T14:22:50.118Z,2.10
2022-10-07T14:25:28.988Z,2.10
2022-10-07T14:28:04.751Z,2.22
2022-10-07T14:30:56.453Z,2.25
2022-10-07T14:34:06.201Z,2.17
2022-10-07T14:36:33.792Z,2.15
2022-10-07T14:39:03.803Z,2.35
2022-10-07T14:41:31.757Z,2.17
2022-10-07T14:44:01.179Z,2.22
2022-10-07T14:46:29.025Z,2.20
2022-10-07T14:48:55.927Z,2.15
2022-10-07T14:51:27.144Z,2.10
2022-10-07T14:54:00.843Z,2.30
2022-10-07T14:56:31.139Z,2.05
2022-10-07T14:58:57.822Z,2.35
2022-10-07T15:01:26.616Z,2.25
2022-10-07T15:03:53.605Z,2.58
2022-10-07T15:06:20.839Z,1.80
2022-10-07T15:08:48.718Z,2.42
2022-10-07T15:11:17.839Z,2.17
2022-10-07T15:13:48.291Z,2.53
2022-10-07T15:16:36.563Z,2.40
2022-10-07T15:19:04.415Z,2.00
2022-10-07T15:21:31.519Z,2.03
2022-10-07T15:23:58.355Z,2.00
2022-10-07T15:26:25.289Z,2.35
2022-10-07T15:28:54.873Z,2.00
2022-10-07T15:31:23.384Z,2.10
2022-10-07T15:33:50.572Z,2.67
2022-10-07T15:36:18.028Z,2.67
2022-10-07T15:38:44.858Z,2.20
2022-10-07T15:41:30.887Z,2.08
2022-10-07T15:43:59.578Z,1.95
2022-10-07T15:46:27.876Z,2.40
2022-10-07T15:48:56.321Z,2.13
2022-10-07T15:51:24.536Z,2.72
2022-10-07T15:53:51.693Z,3.10
2022-10-07T15:56:18.408Z,2.40
2022-10-07T15:58:45.762Z,2.95
2022-10-07T16:01:12.634Z,1.98
2022-10-07T16:03:47.830Z,2.70
2022-10-07T16:06:23.056Z,2.58
2022-10-07T16:08:51.396Z,3.20
2022-10-07T16:11:18.159Z,2.90
2022-10-07T16:13:49.224Z,3.97
2022-10-07T16:16:27.227Z,2.78
2022-10-07T16:18:56.617Z,2.83
2022-10-07T16:21:29.241Z,2.85
2022-10-07T16:24:04.543Z,3.25
2022-10-07T16:26:33.661Z,2.58
2022-10-07T16:29:20.257Z,2.20
2022-10-07T16:31:48.855Z,2.03
2022-10-07T16:34:17.595Z,2.35
2022-10-07T16:36:49.120Z,2.72
2022-10-07T16:39:17.806Z,2.63
2022-10-07T16:41:46.600Z,2.78
2022-10-07T16:44:14.031Z,2.50
2022-10-07T16:46:41.281Z,3.25
2022-10-07T16:49:11.641Z,2.65
2022-10-07T16:51:38.644Z,2.00
2022-10-07T16:54:12.598Z,2.40
2022-10-07T16:56:41.491Z,2.30
2022-10-07T16:59:10.531Z,2.80
2022-10-07T17:01:38.096Z,2.20
2022-10-07T17:04:05.871Z,2.13
2022-10-07T17:06:33.580Z,2.47
2022-10-07T17:09:04.172Z,2.97
2022-10-07T17:11:33.824Z,2.35
2022-10-07T17:14:21.485Z,3.15
2022-10-07T17:16:58.135Z,2.97
2022-10-07T17:19:27.193Z,3.38
2022-10-07T17:21:55.785Z,2.85
2022-10-07T17:24:23.335Z,2.45
2022-10-07T17:26:50.600Z,3.00
2022-10-07T17:29:20.585Z,3.60
2022-10-07T17:31:50.541Z,2.72
2022-10-07T17:34:19.849Z,3.00
2022-10-07T17:36:47.921Z,2.35
2022-10-07T17:39:15.249Z,2.47
2022-10-07T17:41:42.159Z,3.28
2022-10-07T17:44:11.442Z,2.70
2022-10-07T17:46:39.522Z,2.45
2022-10-07T17:49:07.770Z,2.45
2022-10-07T17:51:34.851Z,2.45
2022-10-07T17:54:03.383Z,3.15
2022-10-07T17:56:31.814Z,2.90
2022-10-07T17:58:59.162Z,3.30
2022-10-07T18:01:31.342Z,2.85
2022-10-07T18:04:00.022Z,2.70
2022-10-07T18:06:28.897Z,3.03
2022-10-07T18:08:56.015Z,3.78
2022-10-07T18:11:22.826Z,3.10
2022-10-07T18:14:08.115Z,3.08
2022-10-07T18:16:35.589Z,3.00
2022-10-07T18:19:02.784Z,3.60
2022-10-07T18:21:31.347Z,3.70
2022-10-07T18:23:58.791Z,3.80
2022-10-07T18:26:25.711Z,3.67
2022-10-07T18:28:52.679Z,3.47
2022-10-07T18:31:19.660Z,3.50
2022-10-07T18:33:46.556Z,3.58
2022-10-07T18:36:19.388Z,3.60
2022-10-07T18:38:46.554Z,3.60
2022-10-07T18:41:15.328Z,3.92
2022-10-07T18:43:43.558Z,3.65
2022-10-07T18:46:18.458Z,3.10
2022-10-07T18:48:47.940Z,3.30
2022-10-07T18:51:15.523Z,3.72
2022-10-07T18:53:44.395Z,3.92
2022-10-07T18:56:14.116Z,3.25
2022-10-07T18:58:43.007Z,3.88
2022-10-07T19:01:20.181Z,5.30
2022-10-07T19:03:48.877Z,4.53
2022-10-07T19:06:18.580Z,4.05
2022-10-07T19:08:46.103Z,3.88
2022-10-07T19:11:20.358Z,4.57
2022-10-07T19:13:53.603Z,3.95
2022-10-07T19:16:44.526Z,4.32
2022-10-07T19:19:14.761Z,4.68
2022-10-07T19:21:41.814Z,4.82
2022-10-07T19:24:08.746Z,4.18
2022-10-07T19:26:38.287Z,4.22
2022-10-07T19:29:08.889Z,4.80
2022-10-07T19:31:40.084Z,5.05
2022-10-07T19:34:15.462Z,4.10
2022-10-07T19:36:46.752Z,4.10
2022-10-07T19:39:19.052Z,4.05
2022-10-07T19:41:46.418Z,3.92
2022-10-07T19:44:14.055Z,3.67
2022-10-07T19:46:41.352Z,4.03
2022-10-07T19:49:09.237Z,4.32
2022-10-07T19:51:37.213Z,4.00
2022-10-07T19:54:09.746Z,4.32
2022-10-07T19:56:37.135Z,6.35
2022-10-07T19:59:06.182Z,6.90
2022-10-07T20:01:35.778Z,6.53
2022-10-07T20:04:07.564Z,5.55
2022-10-07T20:09:05.312Z,4.40
2022-10-07T20:11:32.632Z,4.55
2022-10-07T20:13:59.925Z,4.32
2022-10-07T20:16:27.635Z,4.82
2022-10-07T20:19:05.401Z,4.88
2022-10-07T20:21:35.362Z,4.45
2022-10-07T20:24:02.742Z,4.47
2022-10-07T20:26:31.906Z,4.23
2022-10-07T20:29:02.160Z,4.78
2022-10-07T20:31:34.724Z,4.10
2022-10-07T20:34:02.571Z,4.15
2022-10-07T20:36:31.598Z,4.50
2022-10-07T20:39:31.538Z,5.00
2022-10-07T20:42:17.175Z,5.05
2022-10-07T20:44:44.016Z,4.30
2022-10-07T20:47:10.724Z,4.10
2022-10-07T20:49:41.283Z,4.20
2022-10-07T20:52:14.174Z,4.53
2022-10-07T20:54:40.827Z,4.78
2022-10-07T20:57:07.449Z,3.67
2022-10-07T20:59:34.156Z,4.05
2022-10-07T21:02:03.912Z,4.60
2022-10-07T21:04:33.447Z,4.65
2022-10-07T21:07:01.483Z,4.78
2022-10-07T21:09:28.652Z,5.45
2022-10-07T21:11:57.756Z,4.32
2022-10-07T21:14:24.723Z,4.10
2022-10-07T21:16:53.311Z,4.47
2022-10-07T21:19:20.058Z,4.50
2022-10-07T21:21:46.712Z,4.22
2022-10-07T21:24:13.481Z,4.78
2022-10-07T21:26:40.177Z,4.15
2022-10-07T21:29:09.570Z,4.88
2022-10-07T21:31:36.382Z,4.53
2022-10-07T21:34:07.589Z,4.55
2022-10-07T21:36:41.370Z,4.30
2022-10-07T21:39:08.086Z,3.97
2022-10-07T21:41:37.403Z,4.13
2022-10-07T21:44:05.786Z,4.43
2022-10-07T21:46:36.616Z,3.88
2022-10-07T21:49:03.821Z,4.80
2022-10-07T21:51:32.089Z,4.22
2022-10-07T21:53:58.827Z,4.45
2022-10-07T21:56:28.147Z,4.22
2022-10-07T21:58:57.014Z,4.35
2022-10-07T22:01:25.053Z,4.13
2022-10-07T22:04:02.495Z,3.75
2022-10-07T22:06:49.788Z,4.00
2022-10-07T22:09:20.144Z,3.90
2022-10-07T22:11:47.824Z,3.45
2022-10-07T22:14:14.477Z,3.70
2022-10-07T22:16:42.077Z,3.35
2022-10-07T22:19:10.578Z,4.22
2022-10-07T22:21:40.002Z,3.50
2022-10-07T22:24:07.834Z,4.25
2022-10-07T22:26:47.700Z,3.60
2022-10-07T22:29:16.509Z,3.85
2022-10-07T22:31:44.242Z,3.78
2022-10-07T22:34:33.819Z,4.07
2022-10-07T22:37:00.812Z,4.88
2022-10-07T22:39:29.191Z,4.43
2022-10-07T22:41:56.637Z,3.85
2022-10-07T22:44:24.931Z,3.78
2022-10-07T22:46:51.639Z,3.80
2022-10-07T22:49:18.298Z,4.47
2022-10-07T22:51:45.013Z,4.00
2022-10-07T22:54:12.935Z,4.53
2022-10-07T22:56:40.141Z,3.85
2022-10-07T22:59:08.374Z,4.07
2022-10-07T23:01:35.042Z,4.93
2022-10-07T23:04:03.191Z,3.78
2022-10-07T23:06:32.919Z,4.10
2022-10-07T23:09:00.322Z,4.55
2022-10-07T23:11:28.601Z,3.42
2022-10-07T23:13:55.553Z,3.63
2022-10-07T23:16:25.235Z,4.80
2022-10-07T23:18:53.604Z,3.70
2022-10-07T23:21:26.203Z,3.85
2022-10-07T23:24:01.735Z,3.97
2022-10-07T23:26:31.518Z,3.85
2022-10-07T23:29:00.101Z,4.78
2022-10-07T23:31:28.425Z,4.43
2022-10-07T23:33:56.479Z,3.90
2022-10-07T23:36:23.348Z,4.18
2022-10-07T23:38:51.343Z,4.10
2022-10-07T23:41:20.137Z,4.20
2022-10-07T23:43:50.670Z,4.95
2022-10-07T23:46:18.696Z,4.45
2022-10-07T23:48:45.390Z,4.80
2022-10-07T23:51:13.760Z,4.55
2022-10-07T23:53:40.800Z,4.80
2022-10-07T23:56:08.279Z,4.38
2022-10-07T23:58:35.616Z,4.65
